sensor_id;sensor_type;location;lat;lon;timestamp;pressure;altitude;pressure_sealevel;temperature;humidity
29359;BME280;16347;53.232;6.556;2023-01-19T00:00:45;99615.19;;;4.86;80.17
29359;BME280;16347;53.232;6.556;2023-01-19T00:03:15;99632.41;;;4.75;80.26
29359;BME280;16347;53.232;6.556;2023-01-19T00:05:44;99623.56;;;4.83;80.00
29359;BME280;16347;53.232;6.556;2023-01-19T00:08:14;99620.41;;;4.87;79.95
29359;BME280;16347;53.232;6.556;2023-01-19T00:10:45;99616.38;;;4.74;80.05
29359;BME280;16347;53.232;6.556;2023-01-19T00:13:14;99617.78;;;4.78;80.32
29359;BME280;16347;53.232;6.556;2023-01-19T00:15:42;99622.00;;;4.80;79.99
29359;BME280;16347;53.232;6.556;2023-01-19T00:18:10;99617.47;;;4.63;80.24
29359;BME280;16347;53.232;6.556;2023-01-19T00:20:40;99613.00;;;4.72;80.38
29359;BME280;16347;53.232;6.556;2023-01-19T00:23:08;99613.47;;;4.85;79.88
29359;BME280;16347;53.232;6.556;2023-01-19T00:25:36;99619.81;;;4.93;79.39
29359;BME280;16347;53.232;6.556;2023-01-19T00:28:08;99616.56;;;4.72;79.68
29359;BME280;16347;53.232;6.556;2023-01-19T00:30:37;99608.84;;;4.77;79.67
29359;BME280;16347;53.232;6.556;2023-01-19T00:33:05;99616.25;;;4.75;79.68
29359;BME280;16347;53.232;6.556;2023-01-19T00:35:33;99612.16;;;4.71;80.01
29359;BME280;16347;53.232;6.556;2023-01-19T00:38:02;99611.47;;;4.69;80.04
29359;BME280;16347;53.232;6.556;2023-01-19T00:40:30;99614.19;;;4.87;79.83
29359;BME280;16347;53.232;6.556;2023-01-19T00:42:58;99614.72;;;4.73;79.62
29359;BME280;16347;53.232;6.556;2023-01-19T00:45:26;99614.59;;;4.64;80.21
29359;BME280;16347;53.232;6.556;2023-01-19T00:47:55;99621.88;;;4.82;79.87
29359;BME280;16347;53.232;6.556;2023-01-19T00:50:24;99628.63;;;4.68;79.91
29359;BME280;16347;53.232;6.556;2023-01-19T00:52:53;99632.72;;;4.72;80.13
29359;BME280;16347;53.232;6.556;2023-01-19T00:55:23;99623.34;;;4.76;80.07
29359;BME280;16347;53.232;6.556;2023-01-19T00:57:51;99631.19;;;4.60;80.49
29359;BME280;16347;53.232;6.556;2023-01-19T01:00:20;99633.16;;;4.68;80.54
29359;BME280;16347;53.232;6.556;2023-01-19T01:02:50;99627.88;;;4.76;80.75
29359;BME280;16347;53.232;6.556;2023-01-19T01:05:19;99634.69;;;4.70;80.57
29359;BME280;16347;53.232;6.556;2023-01-19T01:07:47;99631.72;;;4.73;80.31
29359;BME280;16347;53.232;6.556;2023-01-19T01:10:19;99638.47;;;4.77;80.67
29359;BME280;16347;53.232;6.556;2023-01-19T01:12:49;99636.50;;;4.79;80.41
29359;BME280;16347;53.232;6.556;2023-01-19T01:15:25;99635.91;;;4.58;80.74
29359;BME280;16347;53.232;6.556;2023-01-19T01:17:55;99641.63;;;4.73;80.85
29359;BME280;16347;53.232;6.556;2023-01-19T01:20:26;99647.72;;;4.75;80.92
29359;BME280;16347;53.232;6.556;2023-01-19T01:22:56;99641.53;;;4.64;81.12
29359;BME280;16347;53.232;6.556;2023-01-19T01:25:26;99636.38;;;4.71;81.06
29359;BME280;16347;53.232;6.556;2023-01-19T01:27:57;99642.94;;;4.69;81.11
29359;BME280;16347;53.232;6.556;2023-01-19T01:30:25;99647.34;;;4.87;80.79
29359;BME280;16347;53.232;6.556;2023-01-19T01:32:53;99642.72;;;4.80;80.86
29359;BME280;16347;53.232;6.556;2023-01-19T01:35:21;99645.88;;;4.75;80.95
29359;BME280;16347;53.232;6.556;2023-01-19T01:37:49;99648.41;;;4.77;81.23
29359;BME280;16347;53.232;6.556;2023-01-19T01:40:18;99644.88;;;4.76;81.08
29359;BME280;16347;53.232;6.556;2023-01-19T01:42:46;99650.81;;;4.80;80.67
29359;BME280;16347;53.232;6.556;2023-01-19T01:45:35;99653.13;;;4.92;80.99
29359;BME280;16347;53.232;6.556;2023-01-19T01:48:07;99653.06;;;5.02;80.63
29359;BME280;16347;53.232;6.556;2023-01-19T01:50:40;99659.00;;;5.05;80.45
29359;BME280;16347;53.232;6.556;2023-01-19T01:53:33;99659.44;;;5.01;80.72
29359;BME280;16347;53.232;6.556;2023-01-19T01:56:06;99654.81;;;5.11;80.49
29359;BME280;16347;53.232;6.556;2023-01-19T01:58:36;99666.25;;;5.23;80.34
29359;BME280;16347;53.232;6.556;2023-01-19T02:01:06;99664.63;;;5.12;80.46
29359;BME280;16347;53.232;6.556;2023-01-19T02:03:55;99662.00;;;5.20;80.44
29359;BME280;16347;53.232;6.556;2023-01-19T02:06:24;99664.94;;;5.27;80.28
29359;BME280;16347;53.232;6.556;2023-01-19T02:08:56;99665.72;;;5.37;79.79
29359;BME280;16347;53.232;6.556;2023-01-19T02:11:44;99666.63;;;5.28;79.64
29359;BME280;16347;53.232;6.556;2023-01-19T02:14:29;99675.38;;;5.12;79.38
29359;BME280;16347;53.232;6.556;2023-01-19T02:16:58;99675.06;;;4.97;79.58
29359;BME280;16347;53.232;6.556;2023-01-19T02:19:31;99672.78;;;5.02;79.74
29359;BME280;16347;53.232;6.556;2023-01-19T02:22:04;99668.88;;;4.87;79.99
29359;BME280;16347;53.232;6.556;2023-01-19T02:24:37;99678.59;;;4.98;80.00
29359;BME280;16347;53.232;6.556;2023-01-19T02:27:06;99679.06;;;5.11;79.51
29359;BME280;16347;53.232;6.556;2023-01-19T02:29:34;99681.22;;;4.90;79.90
29359;BME280;16347;53.232;6.556;2023-01-19T02:32:03;99680.75;;;4.94;79.74
29359;BME280;16347;53.232;6.556;2023-01-19T02:34:31;99680.44;;;4.80;79.58
29359;BME280;16347;53.232;6.556;2023-01-19T02:37:02;99681.19;;;4.72;79.87
29359;BME280;16347;53.232;6.556;2023-01-19T02:39:37;99690.03;;;4.82;80.07
29359;BME280;16347;53.232;6.556;2023-01-19T02:42:08;99684.72;;;4.73;80.04
29359;BME280;16347;53.232;6.556;2023-01-19T02:44:38;99686.06;;;4.59;80.38
29359;BME280;16347;53.232;6.556;2023-01-19T02:47:10;99686.84;;;4.69;80.40
29359;BME280;16347;53.232;6.556;2023-01-19T02:49:39;99684.84;;;4.71;80.34
29359;BME280;16347;53.232;6.556;2023-01-19T02:52:11;99688.25;;;4.73;80.33
29359;BME280;16347;53.232;6.556;2023-01-19T02:54:52;99684.00;;;4.71;80.28
29359;BME280;16347;53.232;6.556;2023-01-19T02:57:45;99697.50;;;4.61;80.70
29359;BME280;16347;53.232;6.556;2023-01-19T03:00:27;99694.69;;;4.62;80.97
29359;BME280;16347;53.232;6.556;2023-01-19T03:03:14;99692.88;;;4.81;80.62
29359;BME280;16347;53.232;6.556;2023-01-19T03:05:53;99689.75;;;4.85;80.14
29359;BME280;16347;53.232;6.556;2023-01-19T03:08:39;99697.00;;;4.48;80.73
29359;BME280;16347;53.232;6.556;2023-01-19T03:11:13;99702.75;;;4.62;81.12
29359;BME280;16347;53.232;6.556;2023-01-19T03:13:45;99692.97;;;4.61;80.83
29359;BME280;16347;53.232;6.556;2023-01-19T03:16:18;99691.78;;;4.74;80.88
29359;BME280;16347;53.232;6.556;2023-01-19T03:18:51;99701.13;;;4.79;80.36
29359;BME280;16347;53.232;6.556;2023-01-19T03:21:22;99696.97;;;4.85;79.75
29359;BME280;16347;53.232;6.556;2023-01-19T03:23:54;99701.25;;;4.78;79.92
29359;BME280;16347;53.232;6.556;2023-01-19T03:26:27;99697.75;;;4.95;79.62
29359;BME280;16347;53.232;6.556;2023-01-19T03:28:59;99706.59;;;4.87;79.37
29359;BME280;16347;53.232;6.556;2023-01-19T03:31:31;99704.91;;;4.86;79.35
29359;BME280;16347;53.232;6.556;2023-01-19T03:34:02;99705.84;;;4.95;79.08
29359;BME280;16347;53.232;6.556;2023-01-19T03:36:35;99709.50;;;5.03;79.17
29359;BME280;16347;53.232;6.556;2023-01-19T03:39:05;99714.22;;;4.92;78.89
29359;BME280;16347;53.232;6.556;2023-01-19T03:41:37;99715.75;;;4.94;79.13
29359;BME280;16347;53.232;6.556;2023-01-19T03:44:07;99709.59;;;4.84;79.32
29359;BME280;16347;53.232;6.556;2023-01-19T03:46:38;99711.66;;;4.90;79.29
29359;BME280;16347;53.232;6.556;2023-01-19T03:49:07;99713.84;;;4.87;79.54
29359;BME280;16347;53.232;6.556;2023-01-19T03:51:36;99713.97;;;4.85;79.59
29359;BME280;16347;53.232;6.556;2023-01-19T03:54:06;99720.09;;;5.05;79.53
29359;BME280;16347;53.232;6.556;2023-01-19T03:56:35;99723.59;;;5.15;79.26
29359;BME280;16347;53.232;6.556;2023-01-19T03:59:03;99717.50;;;5.13;78.92
29359;BME280;16347;53.232;6.556;2023-01-19T04:01:33;99729.63;;;5.27;78.79
29359;BME280;16347;53.232;6.556;2023-01-19T04:04:01;99734.06;;;5.18;78.49
29359;BME280;16347;53.232;6.556;2023-01-19T04:06:29;99730.13;;;5.12;78.68
29359;BME280;16347;53.232;6.556;2023-01-19T04:08:57;99717.03;;;5.17;78.51
29359;BME280;16347;53.232;6.556;2023-01-19T04:11:25;99723.50;;;5.25;78.25
29359;BME280;16347;53.232;6.556;2023-01-19T04:13:55;99726.53;;;5.39;78.39
29359;BME280;16347;53.232;6.556;2023-01-19T04:16:23;99723.06;;;5.29;77.90
29359;BME280;16347;53.232;6.556;2023-01-19T04:18:51;99726.84;;;5.36;77.96
29359;BME280;16347;53.232;6.556;2023-01-19T04:21:19;99726.53;;;5.39;77.85
29359;BME280;16347;53.232;6.556;2023-01-19T04:23:47;99728.59;;;5.28;77.81
29359;BME280;16347;53.232;6.556;2023-01-19T04:26:16;99741.19;;;5.37;78.01
29359;BME280;16347;53.232;6.556;2023-01-19T04:28:44;99744.97;;;5.44;77.80
29359;BME280;16347;53.232;6.556;2023-01-19T04:31:14;99742.63;;;5.49;77.22
29359;BME280;16347;53.232;6.556;2023-01-19T04:33:42;99739.94;;;5.49;77.23
29359;BME280;16347;53.232;6.556;2023-01-19T04:36:10;99751.41;;;5.51;77.18
29359;BME280;16347;53.232;6.556;2023-01-19T04:38:38;99749.50;;;5.43;77.09
29359;BME280;16347;53.232;6.556;2023-01-19T04:41:06;99763.53;;;5.47;77.14
29359;BME280;16347;53.232;6.556;2023-01-19T04:43:34;99762.19;;;5.51;76.97
29359;BME280;16347;53.232;6.556;2023-01-19T04:46:02;99765.38;;;5.64;76.99
29359;BME280;16347;53.232;6.556;2023-01-19T04:48:31;99771.00;;;5.71;76.61
29359;BME280;16347;53.232;6.556;2023-01-19T04:50:59;99761.75;;;5.73;76.51
29359;BME280;16347;53.232;6.556;2023-01-19T04:53:27;99766.97;;;5.75;76.39
29359;BME280;16347;53.232;6.556;2023-01-19T04:55:55;99771.06;;;5.61;76.06
29359;BME280;16347;53.232;6.556;2023-01-19T04:58:25;99777.41;;;5.69;76.16
29359;BME280;16347;53.232;6.556;2023-01-19T05:00:53;99778.31;;;5.60;76.12
29359;BME280;16347;53.232;6.556;2023-01-19T05:03:22;99790.34;;;5.66;76.38
29359;BME280;16347;53.232;6.556;2023-01-19T05:05:53;99780.22;;;5.68;76.29
29359;BME280;16347;53.232;6.556;2023-01-19T05:08:21;99788.19;;;5.69;76.02
29359;BME280;16347;53.232;6.556;2023-01-19T05:10:50;99792.88;;;5.67;75.70
29359;BME280;16347;53.232;6.556;2023-01-19T05:13:18;99778.78;;;5.74;75.87
29359;BME280;16347;53.232;6.556;2023-01-19T05:15:46;99785.72;;;5.76;75.74
29359;BME280;16347;53.232;6.556;2023-01-19T05:18:14;99793.50;;;5.79;75.79
29359;BME280;16347;53.232;6.556;2023-01-19T05:20:42;99803.84;;;5.84;75.67
29359;BME280;16347;53.232;6.556;2023-01-19T05:23:11;99809.53;;;5.81;75.68
29359;BME280;16347;53.232;6.556;2023-01-19T05:25:40;99812.53;;;5.78;75.55
29359;BME280;16347;53.232;6.556;2023-01-19T05:28:09;99821.16;;;5.81;75.81
29359;BME280;16347;53.232;6.556;2023-01-19T05:30:38;99820.47;;;5.79;75.90
29359;BME280;16347;53.232;6.556;2023-01-19T05:33:06;99833.25;;;5.87;76.15
29359;BME280;16347;53.232;6.556;2023-01-19T05:35:34;99829.88;;;5.75;75.42
29359;BME280;16347;53.232;6.556;2023-01-19T05:38:02;99835.94;;;5.87;75.66
29359;BME280;16347;53.232;6.556;2023-01-19T05:40:32;99839.56;;;5.68;75.65
29359;BME280;16347;53.232;6.556;2023-01-19T05:43:01;99838.50;;;5.79;75.66
29359;BME280;16347;53.232;6.556;2023-01-19T05:45:31;99844.66;;;5.71;75.63
29359;BME280;16347;53.232;6.556;2023-01-19T05:48:00;99855.50;;;5.61;75.79
29359;BME280;16347;53.232;6.556;2023-01-19T05:50:28;99853.59;;;5.72;76.20
29359;BME280;16347;53.232;6.556;2023-01-19T05:52:56;99859.16;;;5.70;75.77
29359;BME280;16347;53.232;6.556;2023-01-19T05:55:26;99854.38;;;5.64;75.59
29359;BME280;16347;53.232;6.556;2023-01-19T05:57:56;99852.66;;;5.63;75.00
29359;BME280;16347;53.232;6.556;2023-01-19T06:00:24;99844.41;;;5.64;74.91
29359;BME280;16347;53.232;6.556;2023-01-19T06:02:53;99856.69;;;5.77;74.46
29359;BME280;16347;53.232;6.556;2023-01-19T06:05:21;99849.22;;;5.71;73.83
29359;BME280;16347;53.232;6.556;2023-01-19T06:07:49;99853.75;;;5.70;73.77
29359;BME280;16347;53.232;6.556;2023-01-19T06:10:18;99852.13;;;5.87;73.90
29359;BME280;16347;53.232;6.556;2023-01-19T06:12:47;99861.84;;;5.97;73.35
29359;BME280;16347;53.232;6.556;2023-01-19T06:15:17;99860.91;;;6.06;72.98
29359;BME280;16347;53.232;6.556;2023-01-19T06:17:46;99860.81;;;5.98;72.04
29359;BME280;16347;53.232;6.556;2023-01-19T06:20:14;99852.66;;;6.08;71.03
29359;BME280;16347;53.232;6.556;2023-01-19T06:22:43;99864.84;;;6.12;70.84
29359;BME280;16347;53.232;6.556;2023-01-19T06:25:11;99875.19;;;6.16;70.76
29359;BME280;16347;53.232;6.556;2023-01-19T06:27:42;99880.25;;;6.19;70.40
29359;BME280;16347;53.232;6.556;2023-01-19T06:30:11;99882.03;;;6.29;70.28
29359;BME280;16347;53.232;6.556;2023-01-19T06:32:41;99890.53;;;6.34;69.67
29359;BME280;16347;53.232;6.556;2023-01-19T06:35:09;99900.56;;;6.24;68.72
29359;BME280;16347;53.232;6.556;2023-01-19T06:37:38;99885.13;;;6.16;68.11
29359;BME280;16347;53.232;6.556;2023-01-19T06:40:08;99895.47;;;6.21;67.59
29359;BME280;16347;53.232;6.556;2023-01-19T06:42:40;99902.31;;;6.15;67.92
29359;BME280;16347;53.232;6.556;2023-01-19T06:45:09;99913.28;;;6.13;68.46
29359;BME280;16347;53.232;6.556;2023-01-19T06:47:37;99910.81;;;6.20;68.75
29359;BME280;16347;53.232;6.556;2023-01-19T06:50:08;99905.63;;;6.27;68.18
29359;BME280;16347;53.232;6.556;2023-01-19T06:52:36;99913.34;;;6.22;68.07
29359;BME280;16347;53.232;6.556;2023-01-19T06:55:08;99926.00;;;6.21;67.87
29359;BME280;16347;53.232;6.556;2023-01-19T06:57:38;99926.84;;;6.22;68.28
29359;BME280;16347;53.232;6.556;2023-01-19T07:00:07;99943.84;;;6.04;68.64
29359;BME280;16347;53.232;6.556;2023-01-19T07:02:39;99947.34;;;5.97;69.47
29359;BME280;16347;53.232;6.556;2023-01-19T07:05:10;99948.63;;;5.93;70.07
29359;BME280;16347;53.232;6.556;2023-01-19T07:07:40;99949.63;;;5.92;70.15
29359;BME280;16347;53.232;6.556;2023-01-19T07:10:10;99959.88;;;5.79;70.50
29359;BME280;16347;53.232;6.556;2023-01-19T07:12:39;99947.00;;;5.73;70.97
29359;BME280;16347;53.232;6.556;2023-01-19T07:15:08;99956.88;;;5.82;71.52
29359;BME280;16347;53.232;6.556;2023-01-19T07:17:37;99964.41;;;5.78;71.13
29359;BME280;16347;53.232;6.556;2023-01-19T07:20:10;99966.41;;;5.86;70.91
29359;BME280;16347;53.232;6.556;2023-01-19T07:22:39;99970.53;;;5.80;71.52
29359;BME280;16347;53.232;6.556;2023-01-19T07:25:09;99974.59;;;5.84;71.27
29359;BME280;16347;53.232;6.556;2023-01-19T07:27:37;99981.94;;;5.74;71.46
29359;BME280;16347;53.232;6.556;2023-01-19T07:30:07;99992.03;;;5.62;72.17
29359;BME280;16347;53.232;6.556;2023-01-19T07:32:35;99998.59;;;5.60;72.41
29359;BME280;16347;53.232;6.556;2023-01-19T07:35:04;100006.25;;;5.55;73.05
29359;BME280;16347;53.232;6.556;2023-01-19T07:37:33;100007.53;;;5.60;72.91
29359;BME280;16347;53.232;6.556;2023-01-19T07:40:02;100004.38;;;5.65;73.30
29359;BME280;16347;53.232;6.556;2023-01-19T07:42:31;100017.38;;;5.79;73.18
29359;BME280;16347;53.232;6.556;2023-01-19T07:44:59;100030.09;;;5.59;73.65
29359;BME280;16347;53.232;6.556;2023-01-19T07:47:27;100031.66;;;5.52;74.33
29359;BME280;16347;53.232;6.556;2023-01-19T07:49:55;100037.91;;;5.53;74.74
29359;BME280;16347;53.232;6.556;2023-01-19T07:52:23;100033.75;;;5.68;74.65
29359;BME280;16347;53.232;6.556;2023-01-19T07:54:53;100048.69;;;5.53;74.75
29359;BME280;16347;53.232;6.556;2023-01-19T07:57:21;100050.81;;;5.59;74.72
29359;BME280;16347;53.232;6.556;2023-01-19T07:59:49;100062.13;;;5.72;74.38
29359;BME280;16347;53.232;6.556;2023-01-19T08:02:17;100056.13;;;5.88;73.45
29359;BME280;16347;53.232;6.556;2023-01-19T08:04:46;100064.94;;;5.90;72.91
29359;BME280;16347;53.232;6.556;2023-01-19T08:07:14;100059.25;;;5.93;71.89
29359;BME280;16347;53.232;6.556;2023-01-19T08:09:43;100070.03;;;5.93;71.79
29359;BME280;16347;53.232;6.556;2023-01-19T08:12:12;100061.22;;;6.00;71.34
29359;BME280;16347;53.232;6.556;2023-01-19T08:14:40;100066.59;;;6.00;70.76
29359;BME280;16347;53.232;6.556;2023-01-19T08:17:11;100063.00;;;6.09;70.61
29359;BME280;16347;53.232;6.556;2023-01-19T08:19:39;100071.22;;;6.17;70.00
29359;BME280;16347;53.232;6.556;2023-01-19T08:22:08;100091.50;;;6.22;69.36
29359;BME280;16347;53.232;6.556;2023-01-19T08:24:37;100082.81;;;6.28;69.14
29359;BME280;16347;53.232;6.556;2023-01-19T08:27:06;100086.63;;;6.25;69.15
29359;BME280;16347;53.232;6.556;2023-01-19T08:29:37;100092.59;;;6.29;68.76
29359;BME280;16347;53.232;6.556;2023-01-19T08:32:04;100091.75;;;6.28;68.46
29359;BME280;16347;53.232;6.556;2023-01-19T08:34:33;100093.19;;;6.23;69.14
29359;BME280;16347;53.232;6.556;2023-01-19T08:37:01;100093.44;;;6.29;68.73
29359;BME280;16347;53.232;6.556;2023-01-19T08:39:29;100101.09;;;6.34;68.32
29359;BME280;16347;53.232;6.556;2023-01-19T08:41:57;100096.81;;;6.41;68.02
29359;BME280;16347;53.232;6.556;2023-01-19T08:44:26;100107.94;;;6.55;67.85
29359;BME280;16347;53.232;6.556;2023-01-19T08:46:56;100104.69;;;6.52;67.60
29359;BME280;16347;53.232;6.556;2023-01-19T08:49:24;100115.50;;;6.52;67.20
29359;BME280;16347;53.232;6.556;2023-01-19T08:51:52;100115.41;;;6.44;67.42
29359;BME280;16347;53.232;6.556;2023-01-19T08:54:20;100126.59;;;6.49;67.90
29359;BME280;16347;53.232;6.556;2023-01-19T08:56:48;100126.56;;;6.31;68.18
29359;BME280;16347;53.232;6.556;2023-01-19T08:59:16;100127.56;;;6.30;68.01
29359;BME280;16347;53.232;6.556;2023-01-19T09:01:45;100138.53;;;6.19;68.60
29359;BME280;16347;53.232;6.556;2023-01-19T09:04:14;100143.31;;;6.25;69.22
29359;BME280;16347;53.232;6.556;2023-01-19T09:06:42;100142.97;;;6.47;68.58
29359;BME280;16347;53.232;6.556;2023-01-19T09:09:10;100156.41;;;6.30;68.58
29359;BME280;16347;53.232;6.556;2023-01-19T09:11:39;100162.69;;;6.21;67.95
29359;BME280;16347;53.232;6.556;2023-01-19T09:14:08;100161.75;;;5.83;68.40
29359;BME280;16347;53.232;6.556;2023-01-19T09:16:36;100170.84;;;5.92;68.30
29359;BME280;16347;53.232;6.556;2023-01-19T09:19:04;100173.25;;;5.85;68.01
29359;BME280;16347;53.232;6.556;2023-01-19T09:21:36;100173.13;;;5.96;67.61
29359;BME280;16347;53.232;6.556;2023-01-19T09:24:04;100173.84;;;5.89;67.68
29359;BME280;16347;53.232;6.556;2023-01-19T09:26:33;100170.69;;;6.03;67.28
29359;BME280;16347;53.232;6.556;2023-01-19T09:29:02;100174.81;;;6.07;66.99
29359;BME280;16347;53.232;6.556;2023-01-19T09:31:30;100178.06;;;6.10;66.80
29359;BME280;16347;53.232;6.556;2023-01-19T09:33:58;100182.47;;;6.02;66.01
29359;BME280;16347;53.232;6.556;2023-01-19T09:36:27;100178.53;;;5.96;66.13
29359;BME280;16347;53.232;6.556;2023-01-19T09:38:57;100189.91;;;5.90;66.22
29359;BME280;16347;53.232;6.556;2023-01-19T09:41:25;100175.00;;;5.86;66.09
29359;BME280;16347;53.232;6.556;2023-01-19T09:43:56;100185.03;;;5.84;66.04
29359;BME280;16347;53.232;6.556;2023-01-19T09:46:30;100193.28;;;5.92;65.62
29359;BME280;16347;53.232;6.556;2023-01-19T09:49:01;100202.63;;;5.98;65.33
29359;BME280;16347;53.232;6.556;2023-01-19T09:51:34;100198.06;;;6.17;65.00
29359;BME280;16347;53.232;6.556;2023-01-19T09:54:10;100200.78;;;6.17;65.03
29359;BME280;16347;53.232;6.556;2023-01-19T09:56:39;100208.03;;;6.17;64.46
29359;BME280;16347;53.232;6.556;2023-01-19T09:59:20;100213.16;;;6.10;65.43
29359;BME280;16347;53.232;6.556;2023-01-19T10:04:43;100213.53;;;6.15;66.03
29359;BME280;16347;53.232;6.556;2023-01-19T10:07:24;100222.38;;;6.17;65.93
29359;BME280;16347;53.232;6.556;2023-01-19T10:13:02;100232.56;;;6.24;66.48
29359;BME280;16347;53.232;6.556;2023-01-19T10:15:39;100238.94;;;6.32;66.24
29359;BME280;16347;53.232;6.556;2023-01-19T10:18:16;100231.72;;;6.23;66.26
29359;BME280;16347;53.232;6.556;2023-01-19T10:20:48;100230.59;;;6.16;66.90
29359;BME280;16347;53.232;6.556;2023-01-19T10:26:09;100230.41;;;6.37;66.56
29359;BME280;16347;53.232;6.556;2023-01-19T10:28:40;100238.59;;;6.45;66.11
29359;BME280;16347;53.232;6.556;2023-01-19T10:31:09;100232.44;;;6.62;65.85
29359;BME280;16347;53.232;6.556;2023-01-19T10:33:38;100224.59;;;6.68;65.96
29359;BME280;16347;53.232;6.556;2023-01-19T10:36:16;100240.78;;;6.68;65.37
29359;BME280;16347;53.232;6.556;2023-01-19T10:38:45;100230.53;;;6.72;65.43
29359;BME280;16347;53.232;6.556;2023-01-19T10:41:17;100240.78;;;6.68;65.42
29359;BME280;16347;53.232;6.556;2023-01-19T10:43:46;100248.84;;;6.88;65.17
29359;BME280;16347;53.232;6.556;2023-01-19T10:46:20;100238.75;;;6.80;64.86
29359;BME280;16347;53.232;6.556;2023-01-19T10:48:50;100247.72;;;6.81;64.60
29359;BME280;16347;53.232;6.556;2023-01-19T10:51:20;100244.41;;;6.87;65.16
29359;BME280;16347;53.232;6.556;2023-01-19T10:53:55;100246.38;;;6.94;65.03
29359;BME280;16347;53.232;6.556;2023-01-19T10:56:28;100244.53;;;6.95;64.65
29359;BME280;16347;53.232;6.556;2023-01-19T10:59:02;100241.22;;;7.01;64.81
29359;BME280;16347;53.232;6.556;2023-01-19T11:01:31;100240.38;;;7.00;65.03
29359;BME280;16347;53.232;6.556;2023-01-19T11:04:20;100240.81;;;6.96;64.42
29359;BME280;16347;53.232;6.556;2023-01-19T11:06:48;100250.25;;;7.09;64.79
29359;BME280;16347;53.232;6.556;2023-01-19T11:09:17;100242.81;;;6.94;64.00
29359;BME280;16347;53.232;6.556;2023-01-19T11:11:49;100246.72;;;7.09;63.52
29359;BME280;16347;53.232;6.556;2023-01-19T11:14:20;100243.94;;;7.01;63.90
29359;BME280;16347;53.232;6.556;2023-01-19T11:16:52;100252.47;;;6.96;63.55
29359;BME280;16347;53.232;6.556;2023-01-19T11:19:27;100244.31;;;7.06;63.20
29359;BME280;16347;53.232;6.556;2023-01-19T11:22:16;100253.50;;;7.13;62.20
29359;BME280;16347;53.232;6.556;2023-01-19T11:24:49;100242.16;;;7.09;61.98
29359;BME280;16347;53.232;6.556;2023-01-19T11:27:19;100240.91;;;7.04;61.75
29359;BME280;16347;53.232;6.556;2023-01-19T11:29:50;100244.66;;;6.93;61.93
29359;BME280;16347;53.232;6.556;2023-01-19T11:32:22;100244.78;;;7.01;62.01
29359;BME280;16347;53.232;6.556;2023-01-19T11:34:51;100246.75;;;7.27;61.84
29359;BME280;16347;53.232;6.556;2023-01-19T11:37:30;100250.38;;;7.17;62.47
29359;BME280;16347;53.232;6.556;2023-01-19T11:40:02;100240.34;;;7.28;62.41
29359;BME280;16347;53.232;6.556;2023-01-19T11:42:34;100249.31;;;7.46;61.68
29359;BME280;16347;53.232;6.556;2023-01-19T11:45:09;100241.84;;;7.57;60.55
29359;BME280;16347;53.232;6.556;2023-01-19T11:47:42;100248.16;;;7.66;60.51
29359;BME280;16347;53.232;6.556;2023-01-19T11:50:19;100246.00;;;7.69;61.42
29359;BME280;16347;53.232;6.556;2023-01-19T11:52:50;100245.78;;;7.81;61.59
29359;BME280;16347;53.232;6.556;2023-01-19T11:55:26;100240.03;;;7.66;61.81
29359;BME280;16347;53.232;6.556;2023-01-19T11:58:01;100250.50;;;7.79;60.80
29359;BME280;16347;53.232;6.556;2023-01-19T12:00:34;100263.00;;;7.80;59.91
29359;BME280;16347;53.232;6.556;2023-01-19T12:03:11;100272.19;;;7.69;58.55
29359;BME280;16347;53.232;6.556;2023-01-19T12:05:45;100264.88;;;7.61;58.23
29359;BME280;16347;53.232;6.556;2023-01-19T12:08:17;100275.97;;;7.41;58.78
29359;BME280;16347;53.232;6.556;2023-01-19T12:10:48;100268.06;;;7.30;59.56
29359;BME280;16347;53.232;6.556;2023-01-19T12:13:22;100268.28;;;7.18;60.25
29359;BME280;16347;53.232;6.556;2023-01-19T12:15:53;100267.59;;;7.16;59.92
29359;BME280;16347;53.232;6.556;2023-01-19T12:18:27;100266.66;;;7.26;59.89
29359;BME280;16347;53.232;6.556;2023-01-19T12:20:56;100271.84;;;7.19;59.20
29359;BME280;16347;53.232;6.556;2023-01-19T12:23:52;100268.94;;;7.30;59.30
29359;BME280;16347;53.232;6.556;2023-01-19T12:26:29;100269.22;;;7.27;58.68
29359;BME280;16347;53.232;6.556;2023-01-19T12:29:05;100270.16;;;7.18;58.85
29359;BME280;16347;53.232;6.556;2023-01-19T12:31:38;100278.69;;;7.13;59.24
29359;BME280;16347;53.232;6.556;2023-01-19T12:34:35;100272.44;;;7.13;59.12
29359;BME280;16347;53.232;6.556;2023-01-19T12:37:06;100286.94;;;7.12;58.82
29359;BME280;16347;53.232;6.556;2023-01-19T12:39:55;100280.78;;;7.19;58.57
29359;BME280;16347;53.232;6.556;2023-01-19T12:42:25;100285.41;;;7.37;58.29
29359;BME280;16347;53.232;6.556;2023-01-19T12:45:05;100303.34;;;7.38;58.01
29359;BME280;16347;53.232;6.556;2023-01-19T12:47:35;100310.72;;;7.18;57.66
29359;BME280;16347;53.232;6.556;2023-01-19T12:50:05;100289.63;;;7.21;57.82
29359;BME280;16347;53.232;6.556;2023-01-19T12:52:40;100291.78;;;7.36;57.03
29359;BME280;16347;53.232;6.556;2023-01-19T12:55:19;100308.03;;;7.36;56.89
29359;BME280;16347;53.232;6.556;2023-01-19T12:57:57;100301.50;;;7.29;56.23
29359;BME280;16347;53.232;6.556;2023-01-19T13:00:32;100307.09;;;7.27;54.99
29359;BME280;16347;53.232;6.556;2023-01-19T13:03:03;100299.31;;;7.42;54.47
29359;BME280;16347;53.232;6.556;2023-01-19T13:05:49;100300.75;;;7.36;54.71
29359;BME280;16347;53.232;6.556;2023-01-19T13:08:23;100309.44;;;7.12;55.00
29359;BME280;16347;53.232;6.556;2023-01-19T13:10:59;100306.53;;;6.96;56.12
29359;BME280;16347;53.232;6.556;2023-01-19T13:13:42;100301.06;;;7.06;56.22
29359;BME280;16347;53.232;6.556;2023-01-19T13:16:47;100299.94;;;7.08;56.73
29359;BME280;16347;53.232;6.556;2023-01-19T13:19:23;100301.38;;;7.03;56.87
29359;BME280;16347;53.232;6.556;2023-01-19T13:21:56;100303.63;;;7.07;57.49
29359;BME280;16347;53.232;6.556;2023-01-19T13:27:43;100307.53;;;7.22;56.05
29359;BME280;16347;53.232;6.556;2023-01-19T13:30:16;100306.28;;;7.17;55.92
29359;BME280;16347;53.232;6.556;2023-01-19T13:32:48;100301.25;;;7.32;56.28
29359;BME280;16347;53.232;6.556;2023-01-19T13:35:18;100301.56;;;7.46;55.85
29359;BME280;16347;53.232;6.556;2023-01-19T13:37:49;100309.84;;;7.45;55.95
29359;BME280;16347;53.232;6.556;2023-01-19T13:40:21;100301.41;;;7.48;56.51